sensor_id;sensor_type;location;lat;lon;timestamp;temperature;humidity
17994;DHT22;9122;48.406;9.984;2023-12-28T00:00:27;6.80;93.40
17994;DHT22;9122;48.406;9.984;2023-12-28T00:03:12;6.40;93.20
17994;DHT22;9122;48.406;9.984;2023-12-28T00:05:56;7.10;93.40
17994;DHT22;9122;48.406;9.984;2023-12-28T00:08:40;6.80;93.40
17994;DHT22;9122;48.406;9.984;2023-12-28T00:11:25;6.70;99.90
17994;DHT22;9122;48.406;9.984;2023-12-28T00:16:54;6.70;93.40
17994;DHT22;9122;48.406;9.984;2023-12-28T00:19:38;6.60;99.90
17994;DHT22;9122;48.406;9.984;2023-12-28T00:25:07;6.60;93.50
17994;DHT22;9122;48.406;9.984;2023-12-28T00:27:52;6.60;93.80
17994;DHT22;9122;48.406;9.984;2023-12-28T00:30:36;7.20;93.90
17994;DHT22;9122;48.406;9.984;2023-12-28T00:33:23;6.60;93.80
17994;DHT22;9122;48.406;9.984;2023-12-28T00:36:07;6.60;93.80
17994;DHT22;9122;48.406;9.984;2023-12-28T00:38:52;6.50;93.80
17994;DHT22;9122;48.406;9.984;2023-12-28T00:41:37;6.50;93.70
17994;DHT22;9122;48.406;9.984;2023-12-28T00:44:21;7.30;93.80
17994;DHT22;9122;48.406;9.984;2023-12-28T00:47:05;6.50;99.90
17994;DHT22;9122;48.406;9.984;2023-12-28T00:49:50;6.50;93.70
17994;DHT22;9122;48.406;9.984;2023-12-28T00:52:34;6.50;99.90
17994;DHT22;9122;48.406;9.984;2023-12-28T00:58:03;6.50;93.30
17994;DHT22;9122;48.406;9.984;2023-12-28T01:00:48;6.70;93.80
17994;DHT22;9122;48.406;9.984;2023-12-28T01:03:32;6.50;93.70
17994;DHT22;9122;48.406;9.984;2023-12-28T01:06:16;6.50;93.80
17994;DHT22;9122;48.406;9.984;2023-12-28T01:09:01;6.50;93.80
17994;DHT22;9122;48.406;9.984;2023-12-28T01:11:45;6.50;99.90
17994;DHT22;9122;48.406;9.984;2023-12-28T01:14:30;6.40;99.90
17994;DHT22;9122;48.406;9.984;2023-12-28T01:17:14;6.40;94.00
17994;DHT22;9122;48.406;9.984;2023-12-28T01:19:59;6.40;93.90
17994;DHT22;9122;48.406;9.984;2023-12-28T01:22:43;6.40;93.90
17994;DHT22;9122;48.406;9.984;2023-12-28T01:25:28;6.80;93.90
17994;DHT22;9122;48.406;9.984;2023-12-28T01:28:12;6.20;93.70
17994;DHT22;9122;48.406;9.984;2023-12-28T01:30:56;6.40;99.90
17994;DHT22;9122;48.406;9.984;2023-12-28T01:33:40;7.00;93.90
17994;DHT22;9122;48.406;9.984;2023-12-28T01:36:25;6.40;93.70
17994;DHT22;9122;48.406;9.984;2023-12-28T01:39:10;5.90;93.60
17994;DHT22;9122;48.406;9.984;2023-12-28T01:41:57;6.40;93.70
17994;DHT22;9122;48.406;9.984;2023-12-28T01:44:41;6.30;99.90
17994;DHT22;9122;48.406;9.984;2023-12-28T01:47:26;6.40;93.90
17994;DHT22;9122;48.406;9.984;2023-12-28T01:50:11;6.90;94.00
17994;DHT22;9122;48.406;9.984;2023-12-28T01:52:56;6.40;93.90
17994;DHT22;9122;48.406;9.984;2023-12-28T01:55:43;6.20;93.90
17994;DHT22;9122;48.406;9.984;2023-12-28T01:58:28;7.50;94.30
17994;DHT22;9122;48.406;9.984;2023-12-28T02:01:17;5.70;93.80
17994;DHT22;9122;48.406;9.984;2023-12-28T02:04:01;6.80;94.10
17994;DHT22;9122;48.406;9.984;2023-12-28T02:06:46;6.20;94.00
17994;DHT22;9122;48.406;9.984;2023-12-28T02:09:30;6.20;94.00
17994;DHT22;9122;48.406;9.984;2023-12-28T02:12:14;6.20;94.00
17994;DHT22;9122;48.406;9.984;2023-12-28T02:14:59;6.20;94.00
17994;DHT22;9122;48.406;9.984;2023-12-28T02:20:41;6.20;93.90
17994;DHT22;9122;48.406;9.984;2023-12-28T02:23:25;6.20;93.90
17994;DHT22;9122;48.406;9.984;2023-12-28T02:28:53;6.20;93.70
17994;DHT22;9122;48.406;9.984;2023-12-28T02:31:45;6.10;94.00
17994;DHT22;9122;48.406;9.984;2023-12-28T02:34:35;6.10;93.70
17994;DHT22;9122;48.406;9.984;2023-12-28T02:40:06;6.10;93.70
17994;DHT22;9122;48.406;9.984;2023-12-28T02:42:51;6.10;94.10
17994;DHT22;9122;48.406;9.984;2023-12-28T02:45:37;6.10;94.10
17994;DHT22;9122;48.406;9.984;2023-12-28T02:48:21;6.10;99.90
17994;DHT22;9122;48.406;9.984;2023-12-28T02:51:06;6.10;99.90
17994;DHT22;9122;48.406;9.984;2023-12-28T02:53:51;6.10;94.20
17994;DHT22;9122;48.406;9.984;2023-12-28T02:56:35;6.00;99.90
17994;DHT22;9122;48.406;9.984;2023-12-28T02:59:20;7.00;94.40
17994;DHT22;9122;48.406;9.984;2023-12-28T03:02:04;5.50;94.00
17994;DHT22;9122;48.406;9.984;2023-12-28T03:04:48;6.00;94.20
17994;DHT22;9122;48.406;9.984;2023-12-28T03:07:35;6.00;94.20
17994;DHT22;9122;48.406;9.984;2023-12-28T03:10:20;6.00;94.20
17994;DHT22;9122;48.406;9.984;2023-12-28T03:15:50;5.90;99.90
17994;DHT22;9122;48.406;9.984;2023-12-28T03:18:34;6.00;99.90
17994;DHT22;9122;48.406;9.984;2023-12-28T03:21:19;6.00;99.90
17994;DHT22;9122;48.406;9.984;2023-12-28T03:24:03;5.50;94.10
17994;DHT22;9122;48.406;9.984;2023-12-28T03:26:47;5.90;94.20
17994;DHT22;9122;48.406;9.984;2023-12-28T03:29:32;5.60;94.20
17994;DHT22;9122;48.406;9.984;2023-12-28T03:32:17;5.90;94.30
17994;DHT22;9122;48.406;9.984;2023-12-28T03:35:01;5.40;94.20
17994;DHT22;9122;48.406;9.984;2023-12-28T03:37:46;5.80;94.30
17994;DHT22;9122;48.406;9.984;2023-12-28T03:40:31;5.90;94.20
17994;DHT22;9122;48.406;9.984;2023-12-28T03:45:59;5.80;93.90
17994;DHT22;9122;48.406;9.984;2023-12-28T03:48:43;6.00;94.30
17994;DHT22;9122;48.406;9.984;2023-12-28T03:51:28;5.40;94.10
17994;DHT22;9122;48.406;9.984;2023-12-28T03:54:12;5.80;94.30
17994;DHT22;9122;48.406;9.984;2023-12-28T03:56:59;5.80;94.30
17994;DHT22;9122;48.406;9.984;2023-12-28T03:59:43;5.20;94.20
17994;DHT22;9122;48.406;9.984;2023-12-28T04:02:28;5.80;99.90
17994;DHT22;9122;48.406;9.984;2023-12-28T04:05:15;5.80;94.40
17994;DHT22;9122;48.406;9.984;2023-12-28T04:10:45;5.80;94.00
17994;DHT22;9122;48.406;9.984;2023-12-28T04:13:29;5.90;94.30
17994;DHT22;9122;48.406;9.984;2023-12-28T04:16:14;5.90;94.30
17994;DHT22;9122;48.406;9.984;2023-12-28T04:18:58;5.60;94.20
17994;DHT22;9122;48.406;9.984;2023-12-28T04:21:43;5.90;99.90
17994;DHT22;9122;48.406;9.984;2023-12-28T04:24:28;5.90;94.30
17994;DHT22;9122;48.406;9.984;2023-12-28T04:27:12;6.80;94.90
17994;DHT22;9122;48.406;9.984;2023-12-28T04:29:57;5.90;99.90
17994;DHT22;9122;48.406;9.984;2023-12-28T04:32:41;6.20;94.50
17994;DHT22;9122;48.406;9.984;2023-12-28T04:35:29;5.90;94.20
17994;DHT22;9122;48.406;9.984;2023-12-28T04:40:59;5.90;93.80
17994;DHT22;9122;48.406;9.984;2023-12-28T04:43:44;5.70;94.00
17994;DHT22;9122;48.406;9.984;2023-12-28T04:46:28;6.00;99.90
17994;DHT22;9122;48.406;9.984;2023-12-28T04:49:12;6.70;94.30
17994;DHT22;9122;48.406;9.984;2023-12-28T04:51:57;5.90;94.00
17994;DHT22;9122;48.406;9.984;2023-12-28T04:57:35;6.00;93.70
17994;DHT22;9122;48.406;9.984;2023-12-28T05:00:19;6.10;94.10
17994;DHT22;9122;48.406;9.984;2023-12-28T05:03:04;8.60;94.80
17994;DHT22;9122;48.406;9.984;2023-12-28T05:05:49;5.60;94.00
17994;DHT22;9122;48.406;9.984;2023-12-28T05:08:33;6.80;94.40
17994;DHT22;9122;48.406;9.984;2023-12-28T05:11:17;6.00;94.20
17994;DHT22;9122;48.406;9.984;2023-12-28T05:14:01;5.60;94.10
17994;DHT22;9122;48.406;9.984;2023-12-28T05:16:45;6.50;94.30
17994;DHT22;9122;48.406;9.984;2023-12-28T05:19:30;5.50;94.00
17994;DHT22;9122;48.406;9.984;2023-12-28T05:22:14;7.30;94.60
17994;DHT22;9122;48.406;9.984;2023-12-28T05:24:58;5.90;94.20
17994;DHT22;9122;48.406;9.984;2023-12-28T05:27:43;6.50;94.50
17994;DHT22;9122;48.406;9.984;2023-12-28T05:30:27;5.50;94.10
17994;DHT22;9122;48.406;9.984;2023-12-28T05:33:11;5.80;99.90
17994;DHT22;9122;48.406;9.984;2023-12-28T05:35:56;5.80;94.30
17994;DHT22;9122;48.406;9.984;2023-12-28T05:38:40;5.90;94.40
17994;DHT22;9122;48.406;9.984;2023-12-28T05:44:09;5.80;94.20
17994;DHT22;9122;48.406;9.984;2023-12-28T05:46:53;7.00;94.80
17994;DHT22;9122;48.406;9.984;2023-12-28T05:55:07;5.80;94.20
17994;DHT22;9122;48.406;9.984;2023-12-28T05:57:52;5.80;94.60
17994;DHT22;9122;48.406;9.984;2023-12-28T06:00:36;5.50;94.50
17994;DHT22;9122;48.406;9.984;2023-12-28T06:06:05;5.80;99.90
17994;DHT22;9122;48.406;9.984;2023-12-28T06:08:50;5.70;94.70
17994;DHT22;9122;48.406;9.984;2023-12-28T06:11:35;7.10;95.10
17994;DHT22;9122;48.406;9.984;2023-12-28T06:14:19;6.60;94.90
17994;DHT22;9122;48.406;9.984;2023-12-28T06:17:03;5.70;99.90
17994;DHT22;9122;48.406;9.984;2023-12-28T06:19:47;7.30;95.10
17994;DHT22;9122;48.406;9.984;2023-12-28T06:22:37;5.70;99.90
17994;DHT22;9122;48.406;9.984;2023-12-28T06:25:21;5.70;94.70
17994;DHT22;9122;48.406;9.984;2023-12-28T06:28:05;6.20;95.00
17994;DHT22;9122;48.406;9.984;2023-12-28T06:30:49;5.30;94.60
17994;DHT22;9122;48.406;9.984;2023-12-28T06:33:35;5.60;94.80
17994;DHT22;9122;48.406;9.984;2023-12-28T06:36:20;5.70;94.70
17994;DHT22;9122;48.406;9.984;2023-12-28T06:39:07;5.80;94.90
17994;DHT22;9122;48.406;9.984;2023-12-28T06:41:52;5.30;94.60
17994;DHT22;9122;48.406;9.984;2023-12-28T06:44:36;5.20;94.40
17994;DHT22;9122;48.406;9.984;2023-12-28T06:50:05;5.70;94.10
17994;DHT22;9122;48.406;9.984;2023-12-28T06:52:50;5.70;99.90
17994;DHT22;9122;48.406;9.984;2023-12-28T06:55:35;5.60;94.40
17994;DHT22;9122;48.406;9.984;2023-12-28T06:58:19;7.50;95.00
17994;DHT22;9122;48.406;9.984;2023-12-28T07:01:04;5.80;94.50
17994;DHT22;9122;48.406;9.984;2023-12-28T07:03:48;5.80;94.60
17994;DHT22;9122;48.406;9.984;2023-12-28T07:06:33;5.80;94.60
17994;DHT22;9122;48.406;9.984;2023-12-28T07:12:02;5.80;94.20
17994;DHT22;9122;48.406;9.984;2023-12-28T07:14:46;5.80;94.60
17994;DHT22;9122;48.406;9.984;2023-12-28T07:20:16;5.80;94.50
17994;DHT22;9122;48.406;9.984;2023-12-28T07:23:00;5.90;94.90
17994;DHT22;9122;48.406;9.984;2023-12-28T07:25:44;6.70;95.00
17994;DHT22;9122;48.406;9.984;2023-12-28T07:28:29;5.90;94.80
17994;DHT22;9122;48.406;9.984;2023-12-28T07:31:26;5.90;95.20
17994;DHT22;9122;48.406;9.984;2023-12-28T07:34:11;5.90;94.90
17994;DHT22;9122;48.406;9.984;2023-12-28T07:39:40;6.00;94.50
17994;DHT22;9122;48.406;9.984;2023-12-28T07:42:24;6.20;99.90
17994;DHT22;9122;48.406;9.984;2023-12-28T07:45:09;6.50;94.70
17994;DHT22;9122;48.406;9.984;2023-12-28T07:47:53;6.20;94.50
17994;DHT22;9122;48.406;9.984;2023-12-28T07:50:37;6.40;99.90
17994;DHT22;9122;48.406;9.984;2023-12-28T07:56:06;6.50;93.80
17994;DHT22;9122;48.406;9.984;2023-12-28T07:58:50;6.60;99.90
17994;DHT22;9122;48.406;9.984;2023-12-28T08:01:35;6.60;94.00
17994;DHT22;9122;48.406;9.984;2023-12-28T08:04:20;6.50;99.90
17994;DHT22;9122;48.406;9.984;2023-12-28T08:07:05;6.80;94.10
17994;DHT22;9122;48.406;9.984;2023-12-28T08:12:35;6.50;93.60
17994;DHT22;9122;48.406;9.984;2023-12-28T08:15:19;6.60;93.80
17994;DHT22;9122;48.406;9.984;2023-12-28T08:18:04;6.60;93.70
17994;DHT22;9122;48.406;9.984;2023-12-28T08:20:48;6.50;93.80
17994;DHT22;9122;48.406;9.984;2023-12-28T08:23:34;6.90;93.80
17994;DHT22;9122;48.406;9.984;2023-12-28T08:26:18;7.50;94.00
17994;DHT22;9122;48.406;9.984;2023-12-28T08:29:03;6.60;93.80
17994;DHT22;9122;48.406;9.984;2023-12-28T08:31:47;6.60;93.80
17994;DHT22;9122;48.406;9.984;2023-12-28T08:37:17;6.60;93.70
17994;DHT22;9122;48.406;9.984;2023-12-28T08:40:01;6.60;94.00
17994;DHT22;9122;48.406;9.984;2023-12-28T08:42:46;6.60;93.90
17994;DHT22;9122;48.406;9.984;2023-12-28T08:45:31;6.70;99.90
17994;DHT22;9122;48.406;9.984;2023-12-28T08:51:00;6.70;93.30
17994;DHT22;9122;48.406;9.984;2023-12-28T08:53:44;6.70;93.60
17994;DHT22;9122;48.406;9.984;2023-12-28T08:59:14;6.80;92.90
17994;DHT22;9122;48.406;9.984;2023-12-28T09:01:59;6.90;99.90
17994;DHT22;9122;48.406;9.984;2023-12-28T09:04:45;6.80;93.00
17994;DHT22;9122;48.406;9.984;2023-12-28T09:07:29;6.80;93.00
17994;DHT22;9122;48.406;9.984;2023-12-28T09:10:14;6.80;99.50
17994;DHT22;9122;48.406;9.984;2023-12-28T09:15:43;6.90;92.50
17994;DHT22;9122;48.406;9.984;2023-12-28T09:18:28;6.90;99.90
17994;DHT22;9122;48.406;9.984;2023-12-28T09:26:49;7.10;99.90
17994;DHT22;9122;48.406;9.984;2023-12-28T09:35:04;7.00;92.70
17994;DHT22;9122;48.406;9.984;2023-12-28T09:37:52;7.00;92.80
17994;DHT22;9122;48.406;9.984;2023-12-28T09:43:25;7.00;92.90
17994;DHT22;9122;48.406;9.984;2023-12-28T09:46:10;7.00;93.20
17994;DHT22;9122;48.406;9.984;2023-12-28T09:48:58;7.00;93.20
17994;DHT22;9122;48.406;9.984;2023-12-28T09:54:27;7.10;92.90
17994;DHT22;9122;48.406;9.984;2023-12-28T09:57:11;7.10;93.40
17994;DHT22;9122;48.406;9.984;2023-12-28T09:59:56;6.50;93.10
17994;DHT22;9122;48.406;9.984;2023-12-28T10:02:44;7.20;93.00
17994;DHT22;9122;48.406;9.984;2023-12-28T10:05:29;7.10;93.30
17994;DHT22;9122;48.406;9.984;2023-12-28T10:08:14;7.20;99.90
17994;DHT22;9122;48.406;9.984;2023-12-28T10:10:59;7.30;99.90
17994;DHT22;9122;48.406;9.984;2023-12-28T10:13:45;7.20;93.30
17994;DHT22;9122;48.406;9.984;2023-12-28T10:16:30;7.80;93.40
17994;DHT22;9122;48.406;9.984;2023-12-28T10:19:14;7.20;99.90
17994;DHT22;9122;48.406;9.984;2023-12-28T10:21:58;9.10;93.60
17994;DHT22;9122;48.406;9.984;2023-12-28T10:27:29;7.30;99.90
17994;DHT22;9122;48.406;9.984;2023-12-28T10:30:14;7.30;93.10
17994;DHT22;9122;48.406;9.984;2023-12-28T10:32:58;7.40;99.90
17994;DHT22;9122;48.406;9.984;2023-12-28T10:35:43;7.30;99.90
17994;DHT22;9122;48.406;9.984;2023-12-28T10:38:31;7.10;93.10
17994;DHT22;9122;48.406;9.984;2023-12-28T10:41:18;7.60;93.20
17994;DHT22;9122;48.406;9.984;2023-12-28T10:44:04;6.80;93.00
17994;DHT22;9122;48.406;9.984;2023-12-28T10:46:50;7.30;93.20
17994;DHT22;9122;48.406;9.984;2023-12-28T10:49:39;7.30;93.20
17994;DHT22;9122;48.406;9.984;2023-12-28T10:52:27;7.30;99.90
17994;DHT22;9122;48.406;9.984;2023-12-28T10:55:44;7.40;93.30
17994;DHT22;9122;48.406;9.984;2023-12-28T10:58:49;7.40;93.30
17994;DHT22;9122;48.406;9.984;2023-12-28T11:01:38;8.30;93.60
17994;DHT22;9122;48.406;9.984;2023-12-28T11:07:15;8.20;93.60
17994;DHT22;9122;48.406;9.984;2023-12-28T11:10:01;7.50;93.30
17994;DHT22;9122;48.406;9.984;2023-12-28T11:12:48;7.50;93.40
17994;DHT22;9122;48.406;9.984;2023-12-28T11:15:34;7.50;93.70
17994;DHT22;9122;48.406;9.984;2023-12-28T11:18:19;7.50;93.40
17994;DHT22;9122;48.406;9.984;2023-12-28T11:21:05;7.50;93.30
17994;DHT22;9122;48.406;9.984;2023-12-28T11:23:50;7.50;93.30
17994;DHT22;9122;48.406;9.984;2023-12-28T11:26:34;7.50;93.30
17994;DHT22;9122;48.406;9.984;2023-12-28T11:29:19;7.60;93.40
17994;DHT22;9122;48.406;9.984;2023-12-28T11:32:03;8.30;93.60
17994;DHT22;9122;48.406;9.984;2023-12-28T11:34:57;7.60;93.40
17994;DHT22;9122;48.406;9.984;2023-12-28T11:37:48;7.60;93.30
17994;DHT22;9122;48.406;9.984;2023-12-28T11:40:45;7.70;99.90
17994;DHT22;9122;48.406;9.984;2023-12-28T11:43:35;7.70;93.10
17994;DHT22;9122;48.406;9.984;2023-12-28T11:46:24;7.70;93.40
17994;DHT22;9122;48.406;9.984;2023-12-28T11:49:10;7.70;93.40
17994;DHT22;9122;48.406;9.984;2023-12-28T11:51:57;7.70;93.40
17994;DHT22;9122;48.406;9.984;2023-12-28T11:54:48;7.70;93.00
17994;DHT22;9122;48.406;9.984;2023-12-28T11:57:33;7.90;99.90
17994;DHT22;9122;48.406;9.984;2023-12-28T12:00:19;7.70;93.20
17994;DHT22;9122;48.406;9.984;2023-12-28T12:03:04;7.80;93.50
17994;DHT22;9122;48.406;9.984;2023-12-28T12:05:50;7.80;93.20
17994;DHT22;9122;48.406;9.984;2023-12-28T12:08:35;7.80;93.30
17994;DHT22;9122;48.406;9.984;2023-12-28T12:11:19;7.80;93.20
17994;DHT22;9122;48.406;9.984;2023-12-28T12:14:08;7.80;93.10
17994;DHT22;9122;48.406;9.984;2023-12-28T12:16:52;7.90;93.20
17994;DHT22;9122;48.406;9.984;2023-12-28T12:19:39;7.90;93.20
17994;DHT22;9122;48.406;9.984;2023-12-28T12:22:24;7.90;93.30
17994;DHT22;9122;48.406;9.984;2023-12-28T12:25:09;7.90;93.30
17994;DHT22;9122;48.406;9.984;2023-12-28T12:27:54;7.90;93.30
17994;DHT22;9122;48.406;9.984;2023-12-28T12:30:38;7.90;99.90
17994;DHT22;9122;48.406;9.984;2023-12-28T12:33:24;7.90;93.30
17994;DHT22;9122;48.406;9.984;2023-12-28T12:36:10;8.00;93.30
17994;DHT22;9122;48.406;9.984;2023-12-28T12:38:56;8.00;93.30
17994;DHT22;9122;48.406;9.984;2023-12-28T12:41:41;8.00;93.60
17994;DHT22;9122;48.406;9.984;2023-12-28T12:44:25;8.00;93.30
17994;DHT22;9122;48.406;9.984;2023-12-28T12:47:10;8.00;93.30
17994;DHT22;9122;48.406;9.984;2023-12-28T12:49:56;8.00;93.30
17994;DHT22;9122;48.406;9.984;2023-12-28T12:52:42;8.00;93.30
17994;DHT22;9122;48.406;9.984;2023-12-28T12:55:27;8.30;99.90
17994;DHT22;9122;48.406;9.984;2023-12-28T12:58:12;7.90;93.10
17994;DHT22;9122;48.406;9.984;2023-12-28T13:00:57;8.10;93.10
17994;DHT22;9122;48.406;9.984;2023-12-28T13:03:42;8.10;93.20
17994;DHT22;9122;48.406;9.984;2023-12-28T13:06:26;8.10;93.10
17994;DHT22;9122;48.406;9.984;2023-12-28T13:09:10;8.10;93.10
17994;DHT22;9122;48.406;9.984;2023-12-28T13:11:55;8.20;93.20
17994;DHT22;9122;48.406;9.984;2023-12-28T13:14:41;8.20;93.20
17994;DHT22;9122;48.406;9.984;2023-12-28T13:20:11;8.20;93.00
17994;DHT22;9122;48.406;9.984;2023-12-28T13:22:55;8.20;93.30
17994;DHT22;9122;48.406;9.984;2023-12-28T13:25:41;7.80;93.00
17994;DHT22;9122;48.406;9.984;2023-12-28T13:28:26;8.20;99.90
17994;DHT22;9122;48.406;9.984;2023-12-28T13:31:10;8.30;93.00
17994;DHT22;9122;48.406;9.984;2023-12-28T13:33:55;8.30;93.00
17994;DHT22;9122;48.406;9.984;2023-12-28T13:36:39;8.30;93.00
17994;DHT22;9122;48.406;9.984;2023-12-28T13:39:23;8.30;93.00
17994;DHT22;9122;48.406;9.984;2023-12-28T13:42:08;8.30;92.90
17994;DHT22;9122;48.406;9.984;2023-12-28T13:44:52;8.30;92.90
17994;DHT22;9122;48.406;9.984;2023-12-28T13:47:37;8.30;92.90
17994;DHT22;9122;48.406;9.984;2023-12-28T13:50:21;8.40;93.10
17994;DHT22;9122;48.406;9.984;2023-12-28T13:53:05;8.30;93.30
17994;DHT22;9122;48.406;9.984;2023-12-28T13:55:51;8.40;93.50
17994;DHT22;9122;48.406;9.984;2023-12-28T14:01:21;8.30;93.20
17994;DHT22;9122;48.406;9.984;2023-12-28T14:04:06;8.40;99.90
17994;DHT22;9122;48.406;9.984;2023-12-28T14:06:50;8.40;93.70
17994;DHT22;9122;48.406;9.984;2023-12-28T14:09:35;8.40;93.70
17994;DHT22;9122;48.406;9.984;2023-12-28T14:12:20;8.40;93.80
17994;DHT22;9122;48.406;9.984;2023-12-28T14:15:05;8.40;93.90
17994;DHT22;9122;48.406;9.984;2023-12-28T14:17:50;8.40;94.10
17994;DHT22;9122;48.406;9.984;2023-12-28T14:20:33;8.40;94.30
17994;DHT22;9122;48.406;9.984;2023-12-28T14:23:18;8.40;94.60
17994;DHT22;9122;48.406;9.984;2023-12-28T14:26:13;8.40;94.90
17994;DHT22;9122;48.406;9.984;2023-12-28T14:29:01;8.40;95.10
17994;DHT22;9122;48.406;9.984;2023-12-28T14:31:50;8.40;95.30
17994;DHT22;9122;48.406;9.984;2023-12-28T14:34:35;8.40;95.50
17994;DHT22;9122;48.406;9.984;2023-12-28T14:37:19;8.40;95.60
17994;DHT22;9122;48.406;9.984;2023-12-28T14:40:04;8.80;95.90
17994;DHT22;9122;48.406;9.984;2023-12-28T14:42:50;8.40;95.90
17994;DHT22;9122;48.406;9.984;2023-12-28T14:45:34;7.70;95.70
17994;DHT22;9122;48.406;9.984;2023-12-28T14:48:18;8.30;96.00
17994;DHT22;9122;48.406;9.984;2023-12-28T14:51:03;8.00;96.10
17994;DHT22;9122;48.406;9.984;2023-12-28T14:53:48;8.30;96.30
17994;DHT22;9122;48.406;9.984;2023-12-28T14:56:32;8.30;96.30
17994;DHT22;9122;48.406;9.984;2023-12-28T14:59:16;8.30;96.40
17994;DHT22;9122;48.406;9.984;2023-12-28T15:02:00;8.30;96.50
17994;DHT22;9122;48.406;9.984;2023-12-28T15:04:45;8.30;96.60
17994;DHT22;9122;48.406;9.984;2023-12-28T15:07:29;8.30;96.80
17994;DHT22;9122;48.406;9.984;2023-12-28T15:10:13;8.30;96.80
17994;DHT22;9122;48.406;9.984;2023-12-28T15:12:58;8.30;97.00
17994;DHT22;9122;48.406;9.984;2023-12-28T15:15:43;8.30;97.00
17994;DHT22;9122;48.406;9.984;2023-12-28T15:18:29;8.30;97.10
17994;DHT22;9122;48.406;9.984;2023-12-28T15:21:13;8.40;99.90
17994;DHT22;9122;48.406;9.984;2023-12-28T15:23:58;8.30;97.40
17994;DHT22;9122;48.406;9.984;2023-12-28T15:26:42;8.20;97.50
17994;DHT22;9122;48.406;9.984;2023-12-28T15:29:26;9.20;97.70
17994;DHT22;9122;48.406;9.984;2023-12-28T15:32:11;8.20;97.60
17994;DHT22;9122;48.406;9.984;2023-12-28T15:34:56;8.20;97.60
17994;DHT22;9122;48.406;9.984;2023-12-28T15:37:40;8.30;97.50
17994;DHT22;9122;48.406;9.984;2023-12-28T15:40:24;8.30;97.50
17994;DHT22;9122;48.406;9.984;2023-12-28T15:43:09;7.80;97.40
17994;DHT22;9122;48.406;9.984;2023-12-28T15:45:53;8.20;97.40
17994;DHT22;9122;48.406;9.984;2023-12-28T15:48:38;8.10;97.40
17994;DHT22;9122;48.406;9.984;2023-12-28T15:51:22;8.10;99.90
17994;DHT22;9122;48.406;9.984;2023-12-28T15:54:07;8.50;97.50
17994;DHT22;9122;48.406;9.984;2023-12-28T15:56:52;8.10;97.30
17994;DHT22;9122;48.406;9.984;2023-12-28T15:59:36;9.50;97.60
17994;DHT22;9122;48.406;9.984;2023-12-28T16:02:20;8.10;99.90
17994;DHT22;9122;48.406;9.984;2023-12-28T16:05:05;8.10;97.10
17994;DHT22;9122;48.406;9.984;2023-12-28T16:07:49;8.20;99.90
17994;DHT22;9122;48.406;9.984;2023-12-28T16:10:33;7.60;96.70
17994;DHT22;9122;48.406;9.984;2023-12-28T16:13:17;8.10;99.90
17994;DHT22;9122;48.406;9.984;2023-12-28T16:16:02;8.50;96.80
17994;DHT22;9122;48.406;9.984;2023-12-28T16:18:47;8.10;96.60
17994;DHT22;9122;48.406;9.984;2023-12-28T16:21:32;8.10;96.70
17994;DHT22;9122;48.406;9.984;2023-12-28T16:24:17;8.10;99.90
17994;DHT22;9122;48.406;9.984;2023-12-28T16:27:02;8.00;96.50
17994;DHT22;9122;48.406;9.984;2023-12-28T16:29:46;8.10;96.40
17994;DHT22;9122;48.406;9.984;2023-12-28T16:32:30;8.10;96.40
17994;DHT22;9122;48.406;9.984;2023-12-28T16:35:15;8.00;96.50
17994;DHT22;9122;48.406;9.984;2023-12-28T16:37:59;8.00;96.50
17994;DHT22;9122;48.406;9.984;2023-12-28T16:40:44;8.00;96.50
17994;DHT22;9122;48.406;9.984;2023-12-28T16:43:28;8.10;96.50
17994;DHT22;9122;48.406;9.984;2023-12-28T16:46:13;9.40;97.00
17994;DHT22;9122;48.406;9.984;2023-12-28T16:48:57;7.50;96.30
17994;DHT22;9122;48.406;9.984;2023-12-28T16:51:41;8.90;96.80
17994;DHT22;9122;48.406;9.984;2023-12-28T16:54:25;8.00;96.50
17994;DHT22;9122;48.406;9.984;2023-12-28T16:57:10;8.10;96.60
17994;DHT22;9122;48.406;9.984;2023-12-28T16:59:54;8.00;96.60
17994;DHT22;9122;48.406;9.984;2023-12-28T17:02:39;8.00;96.50
17994;DHT22;9122;48.406;9.984;2023-12-28T17:05:23;8.10;99.90
17994;DHT22;9122;48.406;9.984;2023-12-28T17:08:10;8.00;96.80
17994;DHT22;9122;48.406;9.984;2023-12-28T17:10:55;8.00;96.40
17994;DHT22;9122;48.406;9.984;2023-12-28T17:13:40;8.00;96.30
17994;DHT22;9122;48.406;9.984;2023-12-28T17:16:25;8.00;96.30
17994;DHT22;9122;48.406;9.984;2023-12-28T17:19:09;8.00;96.30
17994;DHT22;9122;48.406;9.984;2023-12-28T17:21:58;8.00;96.30
17994;DHT22;9122;48.406;9.984;2023-12-28T17:24:53;8.00;95.90
17994;DHT22;9122;48.406;9.984;2023-12-28T17:27:42;8.00;99.90
17994;DHT22;9122;48.406;9.984;2023-12-28T17:30:31;8.20;99.90
17994;DHT22;9122;48.406;9.984;2023-12-28T17:33:17;8.00;96.30
17994;DHT22;9122;48.406;9.984;2023-12-28T17:36:02;8.00;96.30
17994;DHT22;9122;48.406;9.984;2023-12-28T17:38:46;8.00;96.40
17994;DHT22;9122;48.406;9.984;2023-12-28T17:41:34;8.10;99.90
17994;DHT22;9122;48.406;9.984;2023-12-28T17:44:26;8.00;96.50
17994;DHT22;9122;48.406;9.984;2023-12-28T17:47:22;8.00;96.50
17994;DHT22;9122;48.406;9.984;2023-12-28T17:50:08;8.30;99.90
17994;DHT22;9122;48.406;9.984;2023-12-28T17:52:54;8.00;96.60
17994;DHT22;9122;48.406;9.984;2023-12-28T17:55:39;8.00;96.80
17994;DHT22;9122;48.406;9.984;2023-12-28T17:58:24;8.00;96.90
17994;DHT22;9122;48.406;9.984;2023-12-28T18:03:53;8.00;96.70
17994;DHT22;9122;48.406;9.984;2023-12-28T18:06:38;8.10;97.00
17994;DHT22;9122;48.406;9.984;2023-12-28T18:09:23;8.60;97.20
17994;DHT22;9122;48.406;9.984;2023-12-28T18:12:08;8.10;97.10
17994;DHT22;9122;48.406;9.984;2023-12-28T18:14:53;8.00;97.30
17994;DHT22;9122;48.406;9.984;2023-12-28T18:17:38;8.00;97.10
17994;DHT22;9122;48.406;9.984;2023-12-28T18:20:22;8.10;99.90
17994;DHT22;9122;48.406;9.984;2023-12-28T18:23:06;8.00;97.30
17994;DHT22;9122;48.406;9.984;2023-12-28T18:25:50;8.10;97.30
17994;DHT22;9122;48.406;9.984;2023-12-28T18:28:35;8.10;97.40
17994;DHT22;9122;48.406;9.984;2023-12-28T18:31:19;8.10;99.90
17994;DHT22;9122;48.406;9.984;2023-12-28T18:34:03;8.00;97.50
17994;DHT22;9122;48.406;9.984;2023-12-28T18:36:47;8.10;97.50
17994;DHT22;9122;48.406;9.984;2023-12-28T18:39:33;9.10;97.70
17994;DHT22;9122;48.406;9.984;2023-12-28T18:42:21;8.00;97.50
17994;DHT22;9122;48.406;9.984;2023-12-28T18:45:06;8.70;97.60
17994;DHT22;9122;48.406;9.984;2023-12-28T18:47:50;8.10;97.70
17994;DHT22;9122;48.406;9.984;2023-12-28T18:50:35;9.00;97.90
17994;DHT22;9122;48.406;9.984;2023-12-28T18:53:19;8.00;97.90
17994;DHT22;9122;48.406;9.984;2023-12-28T18:56:03;8.10;98.00
17994;DHT22;9122;48.406;9.984;2023-12-28T18:58:48;8.10;98.10
17994;DHT22;9122;48.406;9.984;2023-12-28T19:01:32;9.00;98.50
17994;DHT22;9122;48.406;9.984;2023-12-28T19:04:16;8.10;98.30
17994;DHT22;9122;48.406;9.984;2023-12-28T19:09:45;8.10;98.10
17994;DHT22;9122;48.406;9.984;2023-12-28T19:12:30;8.10;98.40
17994;DHT22;9122;48.406;9.984;2023-12-28T19:15:15;8.30;98.50
17994;DHT22;9122;48.406;9.984;2023-12-28T19:17:59;8.00;98.50
17994;DHT22;9122;48.406;9.984;2023-12-28T19:20:43;8.10;98.60
17994;DHT22;9122;48.406;9.984;2023-12-28T19:26:13;8.00;98.20
17994;DHT22;9122;48.406;9.984;2023-12-28T19:28:58;8.00;98.60
17994;DHT22;9122;48.406;9.984;2023-12-28T19:31:43;8.00;98.60
17994;DHT22;9122;48.406;9.984;2023-12-28T19:34:27;7.90;99.90
17994;DHT22;9122;48.406;9.984;2023-12-28T19:37:11;8.00;98.60
17994;DHT22;9122;48.406;9.984;2023-12-28T19:39:56;8.00;98.60
17994;DHT22;9122;48.406;9.984;2023-12-28T19:42:40;7.60;98.50